Time;durP1;ratioP1;P1;durP2;ratioP2;P2;SDS_P1;SDS_P2;PMS_P1;PMS_P2;Temp;Humidity;BMP_temperature;BMP_pressure;BME280_temperature;BME280_humidity;BME280_pressure;Samples;Min_cycle;Max_cycle;Signal;HPM_P1;HPM_P2
2024/01/04 00:00:39;;;;;;;4.00;1.10;;;13.20;70.50;;;;;;2278001;56;21885;-70
2024/01/04 00:03:05;;;;;;;4.35;1.12;;;13.20;70.50;;;;;;2277902;56;20965;-69
2024/01/04 00:05:32;;;;;;;3.42;0.60;;;13.20;70.30;;;;;;2509736;54;21822;-71
2024/01/04 00:07:58;;;;;;;1.10;0.37;;;13.20;70.40;;;;;;2278010;56;21035;-71
2024/01/04 00:10:25;;;;;;;3.35;0.95;;;13.20;70.50;;;;;;2510303;55;22144;-70
2024/01/04 00:12:53;;;;;;;3.90;0.77;;;13.20;70.50;;;;;;2509708;54;20960;-70
2024/01/04 00:15:19;;;;;;;4.22;0.95;;;13.20;70.40;;;;;;2510437;55;20980;-69
2024/01/04 00:17:46;;;;;;;2.42;0.73;;;13.30;70.70;;;;;;2277839;56;21646;-71
2024/01/04 00:20:13;;;;;;;4.25;0.57;;;13.20;70.40;;;;;;2277799;56;20944;-70
2024/01/04 00:22:39;;;;;;;2.97;0.60;;;13.20;70.60;;;;;;2277859;56;20972;-71
2024/01/04 00:25:07;;;;;;;3.40;0.80;;;13.20;70.60;;;;;;2277360;55;21008;-71
2024/01/04 00:27:33;;;;;;;3.28;0.70;;;13.20;70.70;;;;;;2509384;55;21957;-71
2024/01/04 00:30:00;;;;;;;1.85;0.45;;;13.20;70.70;;;;;;2508940;55;20968;-70
2024/01/04 00:32:27;;;;;;;3.25;0.73;;;13.20;70.70;;;;;;2283725;55;20937;-70
2024/01/04 00:34:56;;;;;;;2.62;0.57;;;13.20;70.60;;;;;;2277661;56;20984;-69
2024/01/04 00:37:22;;;;;;;2.35;0.60;;;13.20;70.60;;;;;;2278232;55;21032;-69
2024/01/04 00:39:49;;;;;;;4.78;0.85;;;13.20;70.60;;;;;;2277960;54;21666;-70
2024/01/04 00:42:15;;;;;;;3.25;0.70;;;13.20;70.60;;;;;;2277766;56;20920;-70
2024/01/04 00:44:41;;;;;;;2.35;0.75;;;13.20;70.60;;;;;;2277644;56;20996;-70
2024/01/04 00:47:08;;;;;;;3.62;0.65;;;13.20;70.50;;;;;;2512738;54;21034;-69
2024/01/04 00:49:34;;;;;;;4.15;0.85;;;13.20;70.50;;;;;;2281184;55;21003;-70
2024/01/04 00:52:00;;;;;;;3.70;0.80;;;13.20;70.30;;;;;;2510059;54;21791;-71
2024/01/04 00:54:28;;;;;;;2.97;0.77;;;13.20;70.30;;;;;;2510378;54;20948;-70
2024/01/04 00:56:54;;;;;;;3.58;0.68;;;13.20;70.10;;;;;;2508391;54;21928;-70
2024/01/04 00:59:21;;;;;;;3.20;0.60;;;13.20;70.20;;;;;;2511033;54;20993;-69
2024/01/04 01:01:47;;;;;;;2.55;0.60;;;13.20;70.20;;;;;;2511847;53;21503;-70
2024/01/04 01:04:15;;;;;;;5.72;0.88;;;13.20;70.10;;;;;;2277603;55;20987;-70
2024/01/04 01:06:41;;;;;;;3.58;0.50;;;13.20;70.10;;;;;;2277580;55;21020;-70
2024/01/04 01:09:08;;;;;;;2.10;0.57;;;13.20;70.20;;;;;;2510076;55;20950;-69
2024/01/04 01:11:35;;;;;;;4.53;0.75;;;13.20;70.20;;;;;;2510030;54;21150;-70
2024/01/04 01:14:02;;;;;;;2.65;0.85;;;13.20;70.30;;;;;;2277430;56;20943;-70
2024/01/04 01:16:29;;;;;;;4.22;0.60;;;13.20;70.30;;;;;;2511425;54;21026;-70
2024/01/04 01:18:55;;;;;;;2.83;0.50;;;13.20;70.30;;;;;;2511508;54;20971;-70
2024/01/04 01:21:21;;;;;;;2.97;0.60;;;13.20;70.30;;;;;;2276896;55;21839;-70
2024/01/04 01:23:52;;;;;;;6.53;0.98;;;13.20;70.30;;;;;;2277298;56;20980;-71
2024/01/04 01:26:20;;;;;;;4.07;0.70;;;13.20;70.30;;;;;;2274534;55;21489;-71
2024/01/04 01:28:46;;;;;;;3.17;0.82;;;13.10;70.20;;;;;;2511859;53;21054;-70
2024/01/04 01:31:15;;;;;;;3.47;0.70;;;13.20;70.30;;;;;;2279204;55;21012;-70
2024/01/04 01:33:46;;;;;;;3.75;0.62;;;13.10;70.10;;;;;;2509431;55;21043;-70
2024/01/04 01:36:12;;;;;;;4.37;0.77;;;13.10;70.30;;;;;;2508120;55;21809;-70
2024/01/04 01:38:38;;;;;;;2.50;0.68;;;13.10;70.30;;;;;;2276983;56;20956;-71
2024/01/04 01:41:05;;;;;;;3.55;0.80;;;13.10;70.30;;;;;;2276685;55;20987;-71
2024/01/04 01:43:31;;;;;;;6.30;0.90;;;13.10;70.40;;;;;;2510220;54;21011;-71
2024/01/04 01:45:57;;;;;;;4.65;0.60;;;13.10;70.30;;;;;;2278318;56;20964;-70
2024/01/04 01:48:24;;;;;;;3.10;0.85;;;13.10;70.40;;;;;;2509597;54;20956;-71
2024/01/04 01:50:50;;;;;;;5.65;1.02;;;13.00;70.30;;;;;;2277607;56;21801;-71
2024/01/04 01:53:18;;;;;;;3.97;0.73;;;13.00;70.30;;;;;;2277330;56;20992;-70
2024/01/04 01:55:44;;;;;;;2.28;0.50;;;13.00;70.50;;;;;;2509170;54;20964;-70
2024/01/04 01:58:10;;;;;;;2.95;0.52;;;13.00;70.50;;;;;;2276818;56;21465;-70
2024/01/04 02:00:37;;;;;;;3.05;0.65;;;13.00;70.70;;;;;;2277889;56;20940;-70
2024/01/04 02:03:07;;;;;;;2.05;0.40;;;13.00;70.70;;;;;;2283320;55;20946;-70
2024/01/04 02:05:34;;;;;;;4.68;0.60;;;13.00;70.60;;;;;;2277955;56;20960;-71
2024/01/04 02:08:01;;;;;;;2.47;0.50;;;13.00;70.70;;;;;;2509457;55;20967;-71
2024/01/04 02:10:27;;;;;;;1.73;0.43;;;13.00;70.80;;;;;;2508927;54;20917;-71
2024/01/04 02:12:54;;;;;;;1.42;0.30;;;13.00;71.00;;;;;;2510048;54;21508;-71
2024/01/04 02:15:20;;;;;;;2.90;0.55;;;13.00;71.10;;;;;;2509340;55;20961;-70
2024/01/04 02:17:46;;;;;;;1.62;0.47;;;13.00;71.10;;;;;;2277463;56;20956;-70
2024/01/04 02:20:16;;;;;;;3.85;0.82;;;13.00;71.10;;;;;;2277184;56;20940;-71
2024/01/04 02:22:44;;;;;;;2.42;0.50;;;13.00;71.00;;;;;;2510015;54;20980;-71
2024/01/04 02:25:10;;;;;;;3.28;1.05;;;13.00;71.00;;;;;;2277271;55;20913;-70
2024/01/04 02:27:36;;;;;;;3.87;0.50;;;13.00;71.10;;;;;;2509937;54;21913;-72
2024/01/04 02:30:03;;;;;;;2.60;0.50;;;13.00;71.10;;;;;;2277344;56;21512;-71
2024/01/04 02:32:29;;;;;;;3.20;0.50;;;13.00;71.00;;;;;;2277766;56;20966;-71
2024/01/04 02:34:56;;;;;;;3.33;0.43;;;13.00;71.00;;;;;;2509437;54;21020;-71
2024/01/04 02:37:23;;;;;;;4.82;0.80;;;13.00;71.00;;;;;;2277589;56;21362;-72
2024/01/04 02:39:49;;;;;;;2.47;0.45;;;13.00;71.00;;;;;;2277621;56;21016;-70
2024/01/04 02:42:15;;;;;;;3.00;0.45;;;12.90;71.70;;;;;;2510179;54;20996;-72
2024/01/04 02:44:43;;;;;;;3.85;0.57;;;12.90;71.00;;;;;;2510058;54;20977;-71
2024/01/04 02:47:09;;;;;;;3.75;0.70;;;12.90;70.80;;;;;;2277177;56;21079;-72
2024/01/04 02:49:39;;;;;;;2.50;0.50;;;12.90;71.00;;;;;;2277899;55;21820;-70
2024/01/04 02:52:05;;;;;;;1.40;0.35;;;12.90;71.00;;;;;;2277565;55;20953;-71
2024/01/04 02:54:31;;;;;;;2.00;0.52;;;12.80;70.80;;;;;;2509608;55;21446;-71
2024/01/04 02:56:58;;;;;;;1.92;0.40;;;12.90;71.00;;;;;;2509473;54;20977;-71
2024/01/04 02:59:26;;;;;;;3.05;0.52;;;12.90;71.10;;;;;;2277627;56;20944;-71
2024/01/04 03:01:55;;;;;;;2.05;0.43;;;12.80;71.00;;;;;;2278553;56;21021;-70
2024/01/04 03:04:21;;;;;;;2.60;0.60;;;12.80;70.90;;;;;;2277619;56;20968;-70
2024/01/04 03:06:49;;;;;;;1.45;0.40;;;12.80;71.00;;;;;;2278212;55;20988;-71
2024/01/04 03:09:15;;;;;;;2.10;0.50;;;12.80;70.90;;;;;;2277529;56;21888;-70
2024/01/04 03:11:42;;;;;;;2.08;0.50;;;12.70;70.80;;;;;;2509967;54;20948;-70
2024/01/04 03:14:08;;;;;;;4.07;0.55;;;12.80;71.00;;;;;;2277952;56;20964;-71
2024/01/04 03:16:34;;;;;;;2.35;0.40;;;12.80;71.00;;;;;;2510153;54;20952;-71
2024/01/04 03:19:01;;;;;;;1.08;0.20;;;12.80;70.80;;;;;;2511770;54;20971;-70
2024/01/04 03:21:27;;;;;;;4.07;0.60;;;12.80;70.90;;;;;;2279991;54;20996;-71
2024/01/04 03:23:54;;;;;;;1.50;0.30;;;12.80;71.00;;;;;;2277289;56;20929;-70
2024/01/04 03:26:20;;;;;;;2.40;0.43;;;12.80;71.00;;;;;;2277615;56;20940;-71
2024/01/04 03:28:46;;;;;;;2.72;0.52;;;12.80;71.00;;;;;;2510631;55;21047;-70
2024/01/04 03:31:13;;;;;;;1.23;0.20;;;12.80;71.20;;;;;;2277885;56;20960;-70
2024/01/04 03:33:40;;;;;;;1.33;0.30;;;12.80;71.10;;;;;;2510433;55;21023;-70
2024/01/04 03:36:12;;;;;;;1.83;0.43;;;12.80;71.10;;;;;;2277684;55;20977;-69
2024/01/04 03:38:39;;;;;;;2.90;0.55;;;12.80;70.90;;;;;;2283612;55;20933;-70
2024/01/04 03:41:05;;;;;;;1.30;0.40;;;12.80;70.90;;;;;;2277875;55;20972;-70
2024/01/04 03:43:31;;;;;;;2.70;0.30;;;12.80;71.10;;;;;;2280645;55;21949;-71
2024/01/04 03:45:58;;;;;;;0.80;0.22;;;12.80;71.00;;;;;;2509705;55;21813;-70
2024/01/04 03:48:24;;;;;;;1.50;0.30;;;12.80;70.90;;;;;;2513654;54;20930;-71
2024/01/04 03:50:50;;;;;;;0.35;0.10;;;12.80;71.00;;;;;;2277708;56;20959;-71
2024/01/04 03:53:17;;;;;;;1.73;0.40;;;12.80;70.90;;;;;;2509473;54;20996;-72
2024/01/04 03:55:44;;;;;;;2.90;0.50;;;12.80;71.00;;;;;;2282759;55;20990;-71
2024/01/04 03:58:11;;;;;;;1.62;0.40;;;12.80;70.80;;;;;;2277682;54;20936;-71
2024/01/04 04:00:37;;;;;;;1.42;0.30;;;12.80;70.80;;;;;;2278090;56;20960;-71
2024/01/04 04:03:03;;;;;;;3.47;0.62;;;12.80;70.80;;;;;;2509350;54;20920;-70
2024/01/04 04:05:30;;;;;;;2.55;0.40;;;12.80;70.80;;;;;;2276385;55;21004;-70
2024/01/04 04:07:59;;;;;;;2.22;0.62;;;12.80;70.70;;;;;;2281346;56;21034;-69
2024/01/04 04:10:25;;;;;;;3.33;0.62;;;12.80;70.50;;;;;;2280031;55;21012;-70
2024/01/04 04:12:52;;;;;;;2.58;0.45;;;12.80;70.70;;;;;;2278119;56;21004;-70
2024/01/04 04:15:18;;;;;;;1.75;0.40;;;12.80;70.80;;;;;;2277327;55;20948;-70
2024/01/04 04:17:45;;;;;;;2.30;0.40;;;12.80;70.70;;;;;;2509858;54;20956;-71
2024/01/04 04:20:13;;;;;;;1.08;0.30;;;12.80;70.60;;;;;;2277706;55;20948;-70
2024/01/04 04:22:44;;;;;;;1.37;0.40;;;12.80;70.50;;;;;;2510215;54;21042;-70
2024/01/04 04:25:10;;;;;;;2.97;0.55;;;12.80;70.70;;;;;;2276598;55;21576;-70
2024/01/04 04:27:37;;;;;;;2.60;0.40;;;12.80;70.60;;;;;;2281252;56;21020;-70
2024/01/04 04:30:05;;;;;;;3.15;0.40;;;12.80;71.30;;;;;;2513241;53;20955;-70
2024/01/04 04:32:31;;;;;;;2.50;0.60;;;12.80;70.50;;;;;;2285274;56;21022;-70
2024/01/04 04:34:58;;;;;;;1.65;0.40;;;12.80;70.60;;;;;;2298085;54;20946;-69
2024/01/04 04:37:24;;;;;;;1.17;0.40;;;12.80;70.80;;;;;;2510641;54;21008;-70
2024/01/04 04:39:51;;;;;;;2.90;0.40;;;12.80;70.70;;;;;;2510092;54;20920;-70
2024/01/04 04:42:20;;;;;;;5.57;0.68;;;12.80;70.70;;;;;;2509893;54;20953;-70
2024/01/04 04:44:47;;;;;;;2.42;0.35;;;12.80;70.50;;;;;;2509575;55;21406;-70
2024/01/04 04:47:15;;;;;;;2.17;0.60;;;12.80;70.50;;;;;;2509928;54;20948;-70
2024/01/04 04:49:41;;;;;;;5.80;0.85;;;12.80;70.60;;;;;;2277216;55;21719;-70
2024/01/04 04:52:08;;;;;;;3.40;0.77;;;12.80;70.60;;;;;;2509410;54;20972;-70
2024/01/04 04:54:34;;;;;;;4.00;0.50;;;12.80;70.60;;;;;;2508876;55;20984;-69
2024/01/04 04:57:02;;;;;;;3.67;0.62;;;12.80;70.50;;;;;;2508475;54;20933;-70
2024/01/04 04:59:29;;;;;;;1.20;0.40;;;12.80;70.50;;;;;;2283577;55;21088;-70
2024/01/04 05:01:56;;;;;;;3.35;0.73;;;12.80;70.50;;;;;;2510565;53;21013;-69
2024/01/04 05:04:22;;;;;;;2.15;0.57;;;12.80;70.30;;;;;;2277646;54;21008;-70
2024/01/04 05:06:49;;;;;;;2.08;0.40;;;12.80;70.30;;;;;;2277392;56;20980;-71
2024/01/04 05:09:18;;;;;;;3.30;0.90;;;12.80;70.30;;;;;;2276779;55;20936;-69
2024/01/04 05:11:44;;;;;;;3.90;0.40;;;12.80;70.30;;;;;;2277553;56;20988;-69
2024/01/04 05:14:11;;;;;;;3.72;0.70;;;12.80;70.40;;;;;;2509075;54;21903;-70
2024/01/04 05:16:37;;;;;;;2.22;0.60;;;12.80;70.20;;;;;;2277259;55;20968;-69
2024/01/04 05:19:07;;;;;;;2.78;0.55;;;12.80;70.10;;;;;;2277703;56;21023;-70
2024/01/04 05:21:35;;;;;;;3.80;0.75;;;12.80;70.10;;;;;;2291058;55;21013;-69
2024/01/04 05:24:02;;;;;;;1.98;0.50;;;12.70;69.90;;;;;;2283647;54;20962;-70
2024/01/04 05:26:28;;;;;;;4.45;1.00;;;12.70;69.80;;;;;;2278114;56;21036;-70
2024/01/04 05:28:55;;;;;;;2.72;0.50;;;12.70;70.00;;;;;;2510059;54;20980;-70
2024/01/04 05:31:21;;;;;;;2.62;0.50;;;12.70;70.20;;;;;;2509943;54;21040;-70
2024/01/04 05:33:49;;;;;;;3.17;0.68;;;12.70;70.30;;;;;;2512683;54;21517;-71
2024/01/04 05:36:16;;;;;;;2.85;0.57;;;12.70;69.70;;;;;;2513711;54;20970;-69
2024/01/04 05:38:42;;;;;;;2.47;0.60;;;12.70;70.00;;;;;;2278475;55;20944;-70
2024/01/04 05:41:09;;;;;;;1.70;0.40;;;12.70;70.10;;;;;;2509511;55;21484;-70
2024/01/04 05:43:35;;;;;;;3.05;0.60;;;12.80;70.30;;;;;;2282720;55;20949;-70
2024/01/04 05:46:04;;;;;;;2.40;0.60;;;12.70;70.30;;;;;;2278289;54;20932;-70
2024/01/04 05:48:30;;;;;;;4.95;0.70;;;12.70;70.30;;;;;;2510162;54;20985;-69
2024/01/04 05:50:57;;;;;;;3.47;0.40;;;12.80;70.50;;;;;;2509851;54;20928;-70
2024/01/04 05:53:23;;;;;;;2.53;0.60;;;12.80;70.50;;;;;;2509868;54;20992;-70
2024/01/04 05:55:49;;;;;;;1.20;0.45;;;12.70;70.30;;;;;;2277358;55;20992;-70
2024/01/04 05:58:16;;;;;;;5.47;0.52;;;12.70;70.50;;;;;;2277410;55;20964;-70
2024/01/04 06:00:42;;;;;;;1.42;0.50;;;12.70;70.60;;;;;;2277635;56;20948;-71
2024/01/04 06:03:08;;;;;;;4.87;0.60;;;12.70;70.70;;;;;;2277585;55;20952;-70
2024/01/04 06:05:35;;;;;;;2.65;0.57;;;12.70;71.30;;;;;;2509224;55;21385;-70
2024/01/04 06:08:03;;;;;;;2.00;0.35;;;12.70;70.60;;;;;;2513057;54;20976;-70
2024/01/04 06:10:29;;;;;;;2.83;0.55;;;12.70;70.50;;;;;;2277628;56;21401;-69
2024/01/04 06:12:55;;;;;;;1.52;0.43;;;12.70;70.50;;;;;;2281825;56;22213;-71
2024/01/04 06:15:25;;;;;;;3.05;0.60;;;12.70;70.60;;;;;;2297883;55;20962;-70
2024/01/04 06:17:52;;;;;;;4.87;0.60;;;12.70;70.60;;;;;;2283184;55;20981;-70
2024/01/04 06:20:18;;;;;;;3.30;0.70;;;12.70;70.60;;;;;;2277701;55;21079;-70
2024/01/04 06:22:45;;;;;;;1.50;0.43;;;12.60;70.50;;;;;;2277883;56;21080;-70
2024/01/04 06:25:11;;;;;;;2.83;0.70;;;12.60;70.50;;;;;;2276777;56;21008;-70
2024/01/04 06:27:40;;;;;;;3.35;0.70;;;12.60;70.60;;;;;;2277412;55;21324;-70
2024/01/04 06:30:10;;;;;;;3.20;0.90;;;12.60;70.60;;;;;;2277457;56;21000;-70
2024/01/04 06:32:36;;;;;;;4.97;0.68;;;12.60;70.70;;;;;;2509907;55;21059;-69
2024/01/04 06:35:03;;;;;;;2.10;0.70;;;12.50;70.60;;;;;;2278303;56;20988;-69
2024/01/04 06:37:29;;;;;;;3.05;0.60;;;12.60;70.80;;;;;;2277152;56;21028;-69
2024/01/04 06:39:56;;;;;;;2.75;0.60;;;12.50;70.80;;;;;;2509660;55;21875;-71
2024/01/04 06:42:22;;;;;;;3.15;0.50;;;12.50;70.80;;;;;;2509388;54;20917;-69
2024/01/04 06:44:49;;;;;;;2.58;0.65;;;12.50;70.80;;;;;;2509468;54;20972;-70
2024/01/04 06:47:15;;;;;;;5.00;0.70;;;12.50;70.80;;;;;;2277890;56;21025;-71
2024/01/04 06:49:41;;;;;;;3.10;0.77;;;12.50;71.00;;;;;;2277542;56;20976;-71
2024/01/04 06:52:08;;;;;;;1.45;0.40;;;12.50;71.00;;;;;;2277458;56;20956;-71
2024/01/04 06:54:34;;;;;;;1.70;0.50;;;12.50;71.00;;;;;;2277917;56;21785;-70
2024/01/04 06:57:02;;;;;;;2.92;0.70;;;12.50;71.10;;;;;;2284231;55;20995;-69
2024/01/04 06:59:29;;;;;;;2.60;0.60;;;12.60;71.20;;;;;;2277170;56;20912;-71
2024/01/04 07:01:55;;;;;;;1.55;0.60;;;12.50;71.20;;;;;;2277693;56;20956;-70
2024/01/04 07:04:21;;;;;;;2.10;0.75;;;12.60;71.30;;;;;;2277590;56;20984;-69
2024/01/04 07:06:48;;;;;;;1.60;0.50;;;12.50;71.20;;;;;;2510263;54;20972;-70
2024/01/04 07:09:15;;;;;;;3.35;0.80;;;12.60;71.30;;;;;;2509750;54;20940;-70
2024/01/04 07:11:41;;;;;;;4.22;0.75;;;12.60;71.30;;;;;;2278161;56;20945;-70
2024/01/04 07:14:09;;;;;;;4.57;0.68;;;12.60;71.30;;;;;;2510336;54;20956;-71
2024/01/04 07:16:44;;;;;;;3.90;1.33;;;12.60;71.40;;;;;;2277729;56;20963;-70
2024/01/04 07:19:11;;;;;;;4.55;0.80;;;12.60;71.20;;;;;;2277352;56;21020;-71
2024/01/04 07:21:38;;;;;;;3.87;0.77;;;12.60;71.40;;;;;;2282680;55;21058;-70
2024/01/04 07:24:05;;;;;;;2.33;0.62;;;12.60;71.50;;;;;;2512726;53;21020;-70
2024/01/04 07:26:32;;;;;;;4.95;0.90;;;12.60;71.50;;;;;;2509650;54;20940;-70
2024/01/04 07:28:59;;;;;;;7.18;1.10;;;12.60;71.50;;;;;;2509935;54;20928;-70
2024/01/04 07:31:28;;;;;;;4.47;0.95;;;12.60;71.30;;;;;;2512685;54;20954;-70
2024/01/04 07:33:54;;;;;;;5.50;0.90;;;12.60;71.20;;;;;;2511131;54;20952;-70
2024/01/04 07:36:20;;;;;;;3.05;0.70;;;12.60;71.20;;;;;;2512379;54;21750;-71
2024/01/04 07:38:48;;;;;;;2.05;0.65;;;12.50;71.10;;;;;;2278957;55;20972;-70
2024/01/04 07:41:18;;;;;;;4.10;0.73;;;12.60;71.10;;;;;;2280917;55;21022;-70
2024/01/04 07:43:45;;;;;;;2.80;0.60;;;12.50;70.90;;;;;;2279615;55;21579;-70
2024/01/04 07:46:11;;;;;;;2.45;0.77;;;12.50;71.00;;;;;;2509820;55;20968;-70
2024/01/04 07:48:37;;;;;;;3.47;0.60;;;12.50;71.00;;;;;;2277803;56;21741;-69
2024/01/04 07:51:05;;;;;;;5.72;0.85;;;12.50;71.10;;;;;;2277978;56;20960;-69
2024/01/04 07:53:33;;;;;;;6.75;0.90;;;12.50;71.00;;;;;;2277282;56;21109;-69
2024/01/04 07:55:59;;;;;;;2.42;0.40;;;12.50;71.00;;;;;;2509942;55;20958;-70
2024/01/04 07:58:25;;;;;;;4.50;0.77;;;12.50;71.00;;;;;;2509687;54;21338;-71
2024/01/04 08:00:52;;;;;;;5.85;0.70;;;12.40;70.90;;;;;;2277857;56;20959;-71
2024/01/04 08:03:18;;;;;;;4.03;1.00;;;12.40;70.80;;;;;;2277690;56;20924;-71
2024/01/04 08:05:45;;;;;;;3.40;0.65;;;12.40;70.90;;;;;;2291080;55;21071;-69
2024/01/04 08:08:12;;;;;;;4.37;0.70;;;12.40;70.90;;;;;;2287403;55;21000;-70
2024/01/04 08:10:38;;;;;;;3.62;0.70;;;12.40;71.00;;;;;;2509793;55;21016;-70
2024/01/04 08:13:06;;;;;;;2.30;0.60;;;12.40;71.10;;;;;;2508968;54;21004;-69
2024/01/04 08:15:33;;;;;;;3.60;0.60;;;12.40;71.30;;;;;;2277901;55;20947;-71
2024/01/04 08:18:12;;;;;;;2.58;1.08;;;12.40;71.40;;;;;;2509200;54;20967;-70
2024/01/04 08:20:38;;;;;;;3.37;0.73;;;12.40;70.80;;;;;;2509204;54;21071;-69
2024/01/04 08:23:05;;;;;;;4.72;1.00;;;12.40;71.30;;;;;;2279047;55;21457;-70
2024/01/04 08:25:34;;;;;;;3.55;1.08;;;12.40;71.30;;;;;;2277462;56;20944;-70
2024/01/04 08:28:02;;;;;;;3.92;0.98;;;12.40;71.40;;;;;;2277710;56;20973;-69
2024/01/04 08:30:29;;;;;;;4.47;0.90;;;12.40;71.30;;;;;;2512544;54;21400;-71
2024/01/04 08:32:55;;;;;;;4.05;0.98;;;12.40;71.40;;;;;;2511589;54;20976;-71
2024/01/04 08:35:22;;;;;;;4.20;1.17;;;12.40;71.40;;;;;;2508986;55;21044;-71
2024/01/04 08:37:49;;;;;;;4.45;1.12;;;12.40;71.50;;;;;;2509420;54;20992;-71
2024/01/04 08:40:18;;;;;;;3.85;0.90;;;12.40;71.50;;;;;;2281971;55;21108;-70
2024/01/04 08:42:44;;;;;;;2.62;0.80;;;12.40;71.50;;;;;;2487967;55;20940;-70
2024/01/04 08:45:12;;;;;;;3.83;0.85;;;12.40;71.40;;;;;;2509743;55;20979;-70
2024/01/04 08:47:39;;;;;;;2.70;0.80;;;12.40;71.40;;;;;;2281536;55;20971;-70
2024/01/04 08:50:06;;;;;;;3.30;0.70;;;12.40;71.30;;;;;;2512786;54;20993;-71
2024/01/04 08:52:32;;;;;;;2.70;0.77;;;12.40;71.40;;;;;;2287941;55;20942;-69
2024/01/04 08:54:59;;;;;;;3.72;1.00;;;12.40;71.30;;;;;;2520570;54;21564;-69
2024/01/04 08:57:25;;;;;;;3.60;0.98;;;12.40;71.40;;;;;;2277305;56;20944;-70
2024/01/04 08:59:52;;;;;;;6.20;1.50;;;12.40;71.50;;;;;;2509274;54;20984;-71
2024/01/04 09:02:20;;;;;;;8.45;2.55;;;12.40;71.60;;;;;;2278200;56;20948;-69
2024/01/04 09:04:47;;;;;;;5.47;2.67;;;12.50;71.90;;;;;;2277797;56;20935;-70
2024/01/04 09:07:14;;;;;;;8.20;3.45;;;12.50;72.00;;;;;;2509887;55;21100;-71
2024/01/04 09:09:40;;;;;;;6.62;2.20;;;12.50;72.00;;;;;;2510517;55;20969;-71
2024/01/04 09:12:07;;;;;;;4.47;1.60;;;12.60;72.00;;;;;;2509897;54;21377;-72
2024/01/04 09:14:36;;;;;;;4.45;1.30;;;12.50;72.00;;;;;;2281105;55;20924;-71
2024/01/04 09:17:03;;;;;;;3.47;0.95;;;12.50;72.10;;;;;;2282974;55;21022;-70
2024/01/04 09:19:29;;;;;;;6.12;1.08;;;12.60;72.30;;;;;;2524454;54;20969;-70
2024/01/04 09:21:59;;;;;;;4.53;1.02;;;12.60;72.20;;;;;;2509897;54;20972;-70
2024/01/04 09:24:26;;;;;;;4.80;1.00;;;12.60;72.00;;;;;;2509813;55;20936;-70
2024/01/04 09:26:52;;;;;;;3.05;1.00;;;12.60;72.10;;;;;;2509789;54;21805;-70
2024/01/04 09:29:19;;;;;;;4.50;0.90;;;12.70;72.10;;;;;;2510416;55;20932;-71
2024/01/04 09:31:47;;;;;;;4.37;0.75;;;12.70;72.00;;;;;;2278087;56;21000;-70
2024/01/04 09:34:13;;;;;;;4.82;1.00;;;12.70;72.60;;;;;;2509820;54;21229;-70
2024/01/04 09:36:40;;;;;;;2.35;0.82;;;12.70;71.80;;;;;;2509632;54;20988;-70
2024/01/04 09:39:07;;;;;;;3.80;1.05;;;12.70;71.80;;;;;;2514039;53;20958;-70
2024/01/04 09:41:44;;;;;;;4.37;0.98;;;12.70;71.70;;;;;;2278044;55;21802;-70
2024/01/04 09:44:11;;;;;;;4.53;0.73;;;12.80;71.70;;;;;;2509996;54;20976;-70
2024/01/04 09:46:39;;;;;;;2.95;0.95;;;12.80;71.80;;;;;;2510194;55;21023;-69
2024/01/04 09:49:07;;;;;;;5.72;0.90;;;12.80;71.60;;;;;;2277446;56;20956;-70
2024/01/04 09:51:38;;;;;;;4.57;0.70;;;12.80;71.60;;;;;;2278097;56;21028;-69
2024/01/04 09:54:08;;;;;;;3.43;0.60;;;12.90;71.80;;;;;;2278126;56;20959;-69
2024/01/04 09:56:47;;;;;;;4.93;0.90;;;12.80;71.60;;;;;;2510390;55;20992;-69
2024/01/04 09:59:17;;;;;;;4.07;0.82;;;12.90;71.40;;;;;;2278371;55;21532;-70
2024/01/04 10:01:46;;;;;;;;;;;12.90;72.00;;;;;;2514147;54;20944;-71
2024/01/04 10:04:13;;;;;;;5.93;1.02;;;12.90;70.40;;;;;;2510091;54;20125;-72
2024/01/04 10:06:43;;;;;;;5.00;1.37;;;13.00;71.90;;;;;;2276019;55;20960;-69
2024/01/04 10:10:43;;;;;;;4.75;0.95;;;13.00;71.80;;;;;;2508324;54;20964;-71
2024/01/04 10:13:10;;;;;;;6.12;1.00;;;13.00;70.30;;;;;;2508576;54;21021;-68
2024/01/04 10:15:36;;;;;;;5.32;1.17;;;13.10;72.00;;;;;;2277341;55;21003;-71
2024/01/04 10:18:04;;;;;;;4.10;0.70;;;13.10;71.90;;;;;;2510142;54;21971;-70
2024/01/04 10:20:30;;;;;;;3.85;0.80;;;13.10;72.10;;;;;;2509578;54;20932;-70
2024/01/04 10:22:57;;;;;;;3.58;0.60;;;13.10;72.30;;;;;;2508425;54;20968;-70
2024/01/04 10:25:24;;;;;;;3.45;0.57;;;13.20;72.40;;;;;;2277974;55;20940;-71
2024/01/04 10:27:56;;;;;;;3.30;0.95;;;13.10;72.40;;;;;;2277476;56;21095;-69
2024/01/04 10:30:23;;;;;;;5.07;0.80;;;13.20;72.30;;;;;;2510131;55;20980;-72
2024/01/04 10:32:50;;;;;;;4.80;0.73;;;13.30;72.60;;;;;;2301521;55;20930;-71
2024/01/04 10:35:24;;;;;;;3.92;0.80;;;13.30;72.70;;;;;;2281072;55;21026;-70
2024/01/04 10:38:00;;;;;;;4.57;0.73;;;13.40;73.10;;;;;;2509738;55;21260;-70
2024/01/04 10:40:26;;;;;;;3.92;0.90;;;13.50;72.20;;;;;;2517939;53;21039;-70
2024/01/04 10:42:56;;;;;;;4.30;0.90;;;13.40;72.40;;;;;;2293312;55;21541;-69
2024/01/04 10:45:27;;;;;;;3.05;0.70;;;13.40;72.30;;;;;;2511897;54;21028;-72
2024/01/04 10:47:54;;;;;;;2.30;0.75;;;13.50;72.20;;;;;;2278303;55;21280;-69
2024/01/04 10:50:27;;;;;;;4.72;1.00;;;13.50;72.20;;;;;;2510190;54;21049;-71
2024/01/04 10:52:56;;;;;;;5.15;1.87;;;13.50;71.90;;;;;;2277993;56;21024;-72
2024/01/04 10:55:24;;;;;;;3.10;0.80;;;13.60;72.00;;;;;;2510375;55;20948;-72
2024/01/04 10:57:53;;;;;;;4.97;1.00;;;13.60;72.10;;;;;;2509963;54;21276;-73
2024/01/04 11:00:20;;;;;;;3.58;1.08;;;13.60;72.20;;;;;;2277407;56;20983;-70
2024/01/04 11:02:47;;;;;;;3.90;1.20;;;13.70;72.30;;;;;;2510359;54;20984;-70
2024/01/04 11:05:15;;;;;;;4.12;1.10;;;13.70;72.40;;;;;;2510608;54;20949;-70
2024/01/04 11:07:41;;;;;;;4.47;1.10;;;13.70;72.60;;;;;;2278137;55;20956;-70
2024/01/04 11:10:10;;;;;;;5.50;1.00;;;13.80;72.80;;;;;;2277914;56;20956;-72
2024/01/04 11:12:37;;;;;;;3.97;0.85;;;13.80;72.60;;;;;;2509909;55;21492;-72
2024/01/04 11:15:03;;;;;;;4.70;1.15;;;13.90;72.70;;;;;;2509995;54;20960;-69
2024/01/04 11:21:14;;;;;;;4.87;1.33;;;13.90;72.60;;;;;;2302357;54;21068;-72
2024/01/04 11:24:06;;;;;;;7.07;1.40;;;14.00;71.90;;;;;;2283936;54;21098;-71
2024/01/04 11:26:56;;;;;;;7.18;2.22;;;14.10;72.20;;;;;;2511092;53;21457;-68
2024/01/04 11:29:23;;;;;;;6.78;1.67;;;14.10;71.60;;;;;;2514193;53;20968;-70
2024/01/04 11:31:49;;;;;;;12.37;2.15;;;14.10;72.40;;;;;;2509938;54;20980;-70
2024/01/04 11:34:15;;;;;;;6.05;1.95;;;14.10;72.20;;;;;;2277934;55;21763;-69
2024/01/04 11:36:42;;;;;;;7.35;2.22;;;14.10;71.90;;;;;;2277668;56;20968;-70
2024/01/04 11:39:08;;;;;;;4.87;1.50;;;14.20;71.80;;;;;;2277721;56;21445;-72
2024/01/04 11:41:35;;;;;;;4.60;1.37;;;14.10;71.70;;;;;;2510181;54;20936;-71
2024/01/04 11:44:02;;;;;;;4.97;1.40;;;14.10;71.60;;;;;;2509637;54;21004;-72
2024/01/04 11:46:28;;;;;;;5.97;1.20;;;14.20;71.80;;;;;;2510552;54;20936;-69
2024/01/04 11:49:02;;;;;;;6.78;1.48;;;14.10;71.60;;;;;;2277933;55;20988;-70
2024/01/04 11:51:41;;;;;;;3.70;1.02;;;14.10;71.50;;;;;;2278508;55;20992;-71
2024/01/04 11:54:09;;;;;;;4.22;1.10;;;14.10;70.90;;;;;;2277782;55;21477;-71
2024/01/04 11:56:37;;;;;;;4.18;1.15;;;14.10;71.50;;;;;;2510164;54;20984;-70
2024/01/04 11:59:12;;;;;;;3.70;1.20;;;14.20;71.70;;;;;;2277758;55;20987;-72
2024/01/04 12:01:42;;;;;;;4.18;1.00;;;14.10;71.60;;;;;;2283595;54;21101;-70
2024/01/04 12:04:12;;;;;;;4.18;1.20;;;14.10;71.30;;;;;;2277740;55;21547;-70
2024/01/04 12:06:41;;;;;;;4.32;1.20;;;14.10;71.20;;;;;;2277831;55;20923;-71
2024/01/04 12:09:07;;;;;;;3.12;0.75;;;14.10;71.10;;;;;;2510763;53;21946;-71
2024/01/04 12:11:39;;;;;;;4.28;1.10;;;14.10;71.40;;;;;;2278908;55;20924;-71
2024/01/04 12:14:06;;;;;;;3.83;1.08;;;14.10;71.10;;;;;;2277584;56;20959;-72
2024/01/04 12:16:33;;;;;;;3.95;1.00;;;14.10;71.60;;;;;;2278304;55;20972;-72
2024/01/04 12:19:01;;;;;;;3.37;0.90;;;14.20;71.90;;;;;;2277553;55;21449;-70
2024/01/04 12:21:27;;;;;;;3.05;0.75;;;14.10;71.80;;;;;;2278374;55;20941;-70
2024/01/04 12:23:54;;;;;;;3.17;0.80;;;14.10;71.90;;;;;;2510092;54;21012;-70
2024/01/04 12:26:23;;;;;;;2.92;0.88;;;14.10;71.90;;;;;;2510074;54;20948;-71
2024/01/04 12:28:51;;;;;;;3.75;0.70;;;14.10;72.10;;;;;;2277209;56;20956;-69
2024/01/04 12:31:21;;;;;;;5.03;1.15;;;14.20;72.10;;;;;;2278982;55;20968;-69
2024/01/04 12:33:51;;;;;;;3.75;0.90;;;14.20;72.10;;;;;;2293026;55;21138;-70
2024/01/04 12:36:23;;;;;;;4.15;0.73;;;14.20;71.90;;;;;;2512205;54;21000;-71
2024/01/04 12:38:54;;;;;;;1.90;0.60;;;14.20;71.60;;;;;;2277563;55;21052;-70
2024/01/04 12:41:25;;;;;;;3.47;0.65;;;14.20;71.50;;;;;;2510083;55;21004;-71
2024/01/04 12:43:53;;;;;;;2.40;0.60;;;14.30;71.70;;;;;;2277609;56;20967;-70
2024/01/04 12:46:21;;;;;;;3.00;0.85;;;14.30;71.60;;;;;;2277709;56;21019;-70
2024/01/04 12:48:48;;;;;;;4.40;1.00;;;14.30;71.30;;;;;;2509736;55;20992;-70
2024/01/04 12:51:15;;;;;;;3.17;0.68;;;14.30;71.40;;;;;;2284305;55;20973;-71
2024/01/04 12:53:42;;;;;;;3.03;0.90;;;14.30;71.60;;;;;;2278302;55;20948;-71